Kezdőlap
METAR-TAF:

METAR-TAF

Repülőterek :

Wahoo, Nebraska, Amerikai Egyesült Államok

földrajzi szélesség: 41-14-26N, földrajzi hosszúság: 096-35-40W, magasság: 373 m

Jelenlegi meteorológiai megfigyelések

A jelentés 29 perccel ezelõtt készült, 13:55 UTC
Északnyugati szél 10 kt széllökések: 14 kt
Hőmérséklet 9°C
Páratartalom 81%
Légköri nyomás 1013 hPa
Látótávolság: 16.1 km
Szórványos felhőzet 1100 lábon
Szórványos felhőzet 10000 lábon

METAR: KAHQ 181355Z AUTO 31010G14KT 10SM SCT011 SCT100 09/06 A2992 RMK AO2 T00870056

Idő: 09:24 (14:24 UTC)


TAF: hiányzik

Meteorológiai megfigyelések és előrejelzések több, mint 4000 repülőtéren (METAR és TAF jelentéseket).

A térképen piros és sárga pontok jelzik az elérhető meteorológiai állomásokat.

Mozgassa az egeret a pont fölött, hogy megjelenjen az állomás neve.

Azután kattintson az időjárási megfigyelések és előrejelzések megtekintéséhez.

A térkép megváltoztatása: kattintson a fekete keresztel jelölt zöld gombra ráközelítéshez, a vonallal jelölt zöld gombra távolításhoz, vagy a zöld nyilakra a szomszédos térképek eléréséhez.


METAR-TAF: